VIR13 KJFK-EGLL
Flight info
| Callsign | VIR13 |
|---|---|
| Flight time | N/A |
| Altitude | 37000 |
| Route | BETTE DCT ACK DCT TUSKY DCT JOOPY/M085F380 DCT 49N050W 51N040W 53N030W 54N020W DCT DOGAL DCT BEXET/N0478F390 DCT DEVOL DCT RINUS DCT LIFFY UL975 MALUD Q38 NUGRA |
| Aircraft | A35K/H-SDE2E3GHIJ3J4J5LM1ORWXY/LB1D1 |
Departure
| Time | 2026-05-04 09:46 |
|---|---|
| Airport | John F. Kennedy International Airport (KJFK) |
Arrival
| Time | N/A |
|---|---|
| Airport | London Heathrow Airport (EGLL) |
| Time | Latitude | Longitude | Altitude | Speed | Heading |
|---|---|---|---|---|---|
| 2026-05-04 09:23 | 40.63784 | -73.78014 | 26 ft | 0 kts | 263° |
| 2026-05-04 09:30 | 40.63784 | -73.78010 | 25 ft | 2 kts | 263° |
| 2026-05-04 09:30 | 40.63787 | -73.77989 | 25 ft | 2 kts | 259° |
| 2026-05-04 09:31 | 40.63791 | -73.77968 | 26 ft | 2 kts | 253° |
| 2026-05-04 09:31 | 40.63796 | -73.77948 | 25 ft | 2 kts | 242° |
| 2026-05-04 09:31 | 40.63806 | -73.77930 | 24 ft | 2 kts | 216° |
| 2026-05-04 09:31 | 40.63821 | -73.77923 | 24 ft | 2 kts | 176° |
| 2026-05-04 09:32 | 40.63837 | -73.77925 | 25 ft | 2 kts | 173° |
| 2026-05-04 09:32 | 40.63853 | -73.77927 | 24 ft | 2 kts | 173° |
| 2026-05-04 09:34 | 40.63865 | -73.77929 | 25 ft | 0 kts | 173° |
| 2026-05-04 09:37 | 40.63548 | -73.77806 | 30 ft | 20 kts | 128° |
| 2026-05-04 09:37 | 40.63578 | -73.77660 | 32 ft | 19 kts | 37° |
| 2026-05-04 09:38 | 40.63701 | -73.77607 | 30 ft | 19 kts | 352° |
| 2026-05-04 09:38 | 40.63844 | -73.77565 | 28 ft | 24 kts | 30° |
| 2026-05-04 09:38 | 40.64003 | -73.77439 | 32 ft | 29 kts | 31° |
| 2026-05-04 09:38 | 40.64190 | -73.77295 | 26 ft | 33 kts | 31° |
| 2026-05-04 09:39 | 40.64382 | -73.77145 | 28 ft | 30 kts | 31° |
| 2026-05-04 09:39 | 40.64507 | -73.77090 | 30 ft | 21 kts | 5° |
| 2026-05-04 09:39 | 40.64665 | -73.77115 | 29 ft | 26 kts | 331° |
| 2026-05-04 09:39 | 40.64741 | -73.77164 | 30 ft | 2 kts | 5° |
| 2026-05-04 09:40 | 40.64770 | -73.77146 | 26 ft | 8 kts | 34° |
| 2026-05-04 09:40 | 40.64822 | -73.77075 | 27 ft | 14 kts | 51° |
| 2026-05-04 09:40 | 40.64891 | -73.76953 | 27 ft | 19 kts | 54° |
| 2026-05-04 09:40 | 40.64975 | -73.76787 | 28 ft | 22 kts | 75° |
| 2026-05-04 09:41 | 40.65010 | -73.76593 | 27 ft | 22 kts | 50° |
| 2026-05-04 09:42 | 40.64756 | -73.76560 | 27 ft | 0 kts | 211° |
| 2026-05-04 09:43 | 40.64755 | -73.76560 | 27 ft | 1 kts | 211° |
| 2026-05-04 09:43 | 40.64628 | -73.76660 | 27 ft | 55 kts | 211° |
| 2026-05-04 09:44 | 40.64107 | -73.77068 | 28 ft | 117 kts | 212° |
| 2026-05-04 09:44 | 40.63242 | -73.77744 | 35 ft | 169 kts | 211° |
| 2026-05-04 09:44 | 40.62172 | -73.78571 | 536 ft | 177 kts | 207° |
| 2026-05-04 09:46 | 40.53338 | -73.85374 | 4410 ft | 249 kts | 200° |
| 2026-05-04 09:46 | 40.51606 | -73.85585 | 4861 ft | 262 kts | 178° |
| 2026-05-04 09:46 | 40.49883 | -73.84691 | 4982 ft | 274 kts | 146° |
| 2026-05-04 09:47 | 40.48743 | -73.82668 | 5070 ft | 285 kts | 112° |
| 2026-05-04 09:47 | 40.48441 | -73.80069 | 5506 ft | 291 kts | 92° |
| 2026-05-04 09:49 | 40.46239 | -73.63238 | 10140 ft | 304 kts | 100° |
| 2026-05-04 09:51 | 40.46601 | -73.34410 | 13139 ft | 412 kts | 78° |
| 2026-05-04 09:51 | 40.47006 | -73.31965 | 13481 ft | 415 kts | 76° |
| 2026-05-04 09:51 | 40.47746 | -73.28288 | 13973 ft | 419 kts | 72° |
| 2026-05-04 09:51 | 40.48993 | -73.23404 | 14601 ft | 423 kts | 68° |
| 2026-05-04 09:52 | 40.50104 | -73.19872 | 15093 ft | 425 kts | 64° |
| 2026-05-04 09:52 | 40.51431 | -73.16346 | 15594 ft | 426 kts | 59° |
| 2026-05-04 09:52 | 40.52923 | -73.12970 | 16091 ft | 428 kts | 57° |
| 2026-05-04 09:52 | 40.54297 | -73.09532 | 16563 ft | 433 kts | 63° |
| 2026-05-04 09:53 | 40.55372 | -73.05810 | 17100 ft | 437 kts | 70° |
| 2026-05-04 09:53 | 40.56267 | -73.01969 | 17585 ft | 440 kts | 71° |
| 2026-05-04 09:53 | 40.57159 | -72.98113 | 18051 ft | 443 kts | 72° |
| 2026-05-04 09:53 | 40.58009 | -72.94193 | 18498 ft | 446 kts | 72° |
| 2026-05-04 09:54 | 40.58081 | -72.93861 | 18524 ft | 446 kts | 72° |
| 2026-05-04 09:54 | 40.58572 | -72.91622 | 18750 ft | 448 kts | 71° |
| 2026-05-04 09:55 | 40.59473 | -72.87677 | 19117 ft | 451 kts | 71° |
| 2026-05-04 09:55 | 40.60413 | -72.83762 | 19488 ft | 454 kts | 70° |
| 2026-05-04 09:55 | 40.61393 | -72.79820 | 19863 ft | 457 kts | 69° |
| 2026-05-04 09:55 | 40.62409 | -72.75820 | 20256 ft | 460 kts | 69° |
| 2026-05-04 09:56 | 40.63437 | -72.71805 | 20633 ft | 463 kts | 69° |
| 2026-05-04 09:56 | 40.64469 | -72.67776 | 21018 ft | 466 kts | 69° |
| 2026-05-04 09:56 | 40.65506 | -72.63719 | 21403 ft | 469 kts | 69° |
| 2026-05-04 09:56 | 40.66549 | -72.59620 | 21819 ft | 472 kts | 69° |
| 2026-05-04 09:57 | 40.67595 | -72.55496 | 22187 ft | 476 kts | 69° |
| 2026-05-04 09:57 | 40.68652 | -72.51318 | 22586 ft | 479 kts | 69° |
| 2026-05-04 09:57 | 40.69694 | -72.47188 | 22972 ft | 482 kts | 69° |
| 2026-05-04 09:57 | 40.70752 | -72.42986 | 23379 ft | 486 kts | 69° |
| 2026-05-04 09:58 | 40.71824 | -72.38721 | 23724 ft | 489 kts | 69° |
| 2026-05-04 09:58 | 40.72893 | -72.34462 | 24060 ft | 492 kts | 69° |
| 2026-05-04 09:58 | 40.73968 | -72.30165 | 24407 ft | 494 kts | 70° |
| 2026-05-04 10:00 | 40.81609 | -71.99430 | 26742 ft | 513 kts | 70° |
| 2026-05-04 10:00 | 40.82721 | -71.94925 | 27097 ft | 516 kts | 70° |
| 2026-05-04 10:02 | 40.90610 | -71.62706 | 29321 ft | 537 kts | 71° |
| 2026-05-04 10:04 | 40.98642 | -71.29434 | 31534 ft | 545 kts | 71° |
| 2026-05-04 10:04 | 40.99790 | -71.24641 | 31841 ft | 546 kts | 71° |
| 2026-05-04 10:04 | 41.00937 | -71.19844 | 32132 ft | 546 kts | 71° |
| 2026-05-04 10:04 | 41.02080 | -71.15048 | 32415 ft | 547 kts | 71° |
| 2026-05-04 10:05 | 41.02840 | -71.11858 | 32600 ft | 548 kts | 71° |
| 2026-05-04 10:05 | 41.04371 | -71.05412 | 33029 ft | 547 kts | 71° |
| 2026-05-04 10:05 | 41.05125 | -71.02227 | 33285 ft | 547 kts | 71° |
| 2026-05-04 10:05 | 41.06635 | -70.95845 | 33653 ft | 548 kts | 71° |
| 2026-05-04 10:06 | 41.07406 | -70.92580 | 33819 ft | 548 kts | 71° |
| 2026-05-04 10:06 | 41.08543 | -70.87755 | 34052 ft | 549 kts | 71° |
| 2026-05-04 10:06 | 41.10052 | -70.81336 | 34231 ft | 552 kts | 71° |
| 2026-05-04 10:08 | 41.16463 | -70.53854 | 35630 ft | 548 kts | 72° |
| 2026-05-04 10:08 | 41.17585 | -70.49011 | 35777 ft | 550 kts | 72° |
| 2026-05-04 10:08 | 41.18709 | -70.44147 | 35943 ft | 551 kts | 72° |
| 2026-05-04 10:08 | 41.19831 | -70.39285 | 36178 ft | 550 kts | 72° |
| 2026-05-04 10:09 | 41.20947 | -70.34435 | 36413 ft | 549 kts | 72° |
| 2026-05-04 10:09 | 41.22061 | -70.29585 | 36629 ft | 549 kts | 72° |
| 2026-05-04 10:09 | 41.23173 | -70.24731 | 36836 ft | 548 kts | 72° |
| 2026-05-04 10:09 | 41.24282 | -70.19882 | 36965 ft | 550 kts | 72° |
| 2026-05-04 10:10 | 41.26508 | -70.10170 | 36998 ft | 557 kts | 71° |
| 2026-05-04 10:10 | 41.29983 | -70.01076 | 36992 ft | 549 kts | 50° |
| 2026-05-04 10:11 | 41.35141 | -69.93723 | 36987 ft | 543 kts | 40° |
| 2026-05-04 10:11 | 41.40641 | -69.86810 | 36982 ft | 543 kts | 39° |
| 2026-05-04 10:12 | 41.46181 | -69.79928 | 36979 ft | 544 kts | 39° |
| 2026-05-04 10:12 | 41.51685 | -69.73002 | 36969 ft | 544 kts | 39° |
| 2026-05-04 10:13 | 41.57172 | -69.66032 | 36966 ft | 544 kts | 39° |
| 2026-05-04 10:13 | 41.62638 | -69.59058 | 36963 ft | 544 kts | 40° |
| 2026-05-04 10:14 | 41.68080 | -69.52099 | 36955 ft | 544 kts | 40° |
| 2026-05-04 10:16 | 41.89968 | -69.23949 | 36951 ft | 545 kts | 40° |
| 2026-05-04 10:16 | 41.95399 | -69.16920 | 36931 ft | 543 kts | 40° |
| 2026-05-04 10:17 | 42.00836 | -69.09866 | 36939 ft | 543 kts | 40° |
| 2026-05-04 10:19 | 42.22494 | -68.81594 | 36927 ft | 541 kts | 40° |
| 2026-05-04 10:19 | 42.27858 | -68.74548 | 36927 ft | 541 kts | 40° |
| 2026-05-04 10:20 | 42.33246 | -68.67452 | 36922 ft | 540 kts | 40° |
| 2026-05-04 10:20 | 42.38623 | -68.60353 | 36951 ft | 540 kts | 41° |
| 2026-05-04 10:21 | 42.43999 | -68.53236 | 36920 ft | 539 kts | 41° |
| 2026-05-04 10:21 | 42.49364 | -68.46119 | 36915 ft | 541 kts | 41° |
| 2026-05-04 10:22 | 42.57399 | -68.35423 | 36908 ft | 541 kts | 41° |
| 2026-05-04 10:23 | 42.62794 | -68.28217 | 36907 ft | 540 kts | 41° |
| 2026-05-04 10:25 | 42.84162 | -67.99498 | 36913 ft | 541 kts | 41° |
| 2026-05-04 10:25 | 42.89497 | -67.92281 | 36899 ft | 539 kts | 41° |
| 2026-05-04 10:26 | 42.94823 | -67.85056 | 36896 ft | 539 kts | 41° |
| 2026-05-04 10:26 | 43.00141 | -67.77827 | 36903 ft | 539 kts | 42° |
| 2026-05-04 10:27 | 43.05446 | -67.70596 | 36894 ft | 538 kts | 42° |
| 2026-05-04 10:27 | 43.10709 | -67.63402 | 36889 ft | 538 kts | 42° |
| 2026-05-04 10:28 | 43.15999 | -67.56153 | 36887 ft | 538 kts | 42° |
| 2026-05-04 10:28 | 43.21281 | -67.48896 | 36881 ft | 537 kts | 42° |
| 2026-05-04 10:29 | 43.26555 | -67.41631 | 36876 ft | 537 kts | 42° |
| 2026-05-04 10:29 | 43.31823 | -67.34358 | 36876 ft | 536 kts | 42° |
| 2026-05-04 10:30 | 43.37046 | -67.27125 | 36875 ft | 535 kts | 43° |
| 2026-05-04 10:30 | 43.42289 | -67.19847 | 36873 ft | 535 kts | 43° |
| 2026-05-04 10:31 | 43.47532 | -67.12548 | 36868 ft | 535 kts | 43° |
| 2026-05-04 10:32 | 43.63388 | -66.84136 | 36850 ft | 538 kts | 58° |
| 2026-05-04 10:33 | 43.67123 | -66.75257 | 36824 ft | 538 kts | 58° |
| 2026-05-04 10:33 | 43.70901 | -66.66291 | 36840 ft | 539 kts | 58° |
| 2026-05-04 10:34 | 43.74691 | -66.57327 | 36831 ft | 539 kts | 58° |
| 2026-05-04 10:34 | 43.78471 | -66.48377 | 36817 ft | 538 kts | 58° |
| 2026-05-04 10:35 | 43.82241 | -66.39425 | 36812 ft | 538 kts | 58° |
| 2026-05-04 10:35 | 43.86016 | -66.30429 | 36818 ft | 538 kts | 58° |
| 2026-05-04 10:36 | 43.89742 | -66.21524 | 36803 ft | 537 kts | 59° |
| 2026-05-04 10:36 | 43.93487 | -66.12542 | 36791 ft | 537 kts | 59° |
| 2026-05-04 10:37 | 43.97226 | -66.03550 | 36801 ft | 539 kts | 59° |
| 2026-05-04 10:37 | 44.00967 | -65.94522 | 36800 ft | 538 kts | 59° |
| 2026-05-04 10:39 | 44.13965 | -65.62929 | 36770 ft | 538 kts | 59° |
| 2026-05-04 10:40 | 44.17669 | -65.53864 | 36761 ft | 538 kts | 59° |
| 2026-05-04 10:40 | 44.21364 | -65.44790 | 36748 ft | 539 kts | 59° |
| 2026-05-04 10:41 | 44.25047 | -65.35719 | 36733 ft | 540 kts | 59° |
| 2026-05-04 10:41 | 44.28748 | -65.26571 | 36749 ft | 541 kts | 59° |
| 2026-05-04 10:42 | 44.32446 | -65.17402 | 36734 ft | 541 kts | 59° |
| 2026-05-04 10:42 | 44.36135 | -65.08225 | 36722 ft | 542 kts | 59° |
| 2026-05-04 10:43 | 44.39793 | -64.99097 | 36721 ft | 541 kts | 59° |
| 2026-05-04 10:45 | 44.54423 | -64.62287 | 36675 ft | 541 kts | 60° |
| 2026-05-04 10:45 | 44.58066 | -64.53043 | 36668 ft | 541 kts | 60° |
| 2026-05-04 10:46 | 44.61700 | -64.43795 | 36658 ft | 541 kts | 60° |
| 2026-05-04 10:46 | 44.65330 | -64.34527 | 36649 ft | 540 kts | 60° |
| 2026-05-04 10:47 | 44.68939 | -64.25277 | 36642 ft | 539 kts | 60° |
| 2026-05-04 10:47 | 44.72539 | -64.16023 | 36598 ft | 539 kts | 60° |
| 2026-05-04 10:49 | 44.86876 | -63.78861 | 36581 ft | 540 kts | 61° |
| 2026-05-04 10:50 | 44.90441 | -63.69542 | 36571 ft | 540 kts | 61° |
| 2026-05-04 10:52 | 45.04571 | -63.32295 | 36545 ft | 540 kts | 61° |
| 2026-05-04 10:52 | 45.08095 | -63.22927 | 36527 ft | 539 kts | 62° |
| 2026-05-04 10:54 | 45.21526 | -62.86926 | 36497 ft | 539 kts | 62° |
| 2026-05-04 10:56 | 45.35413 | -62.49196 | 36467 ft | 539 kts | 62° |
| 2026-05-04 10:57 | 45.38869 | -62.39725 | 36444 ft | 539 kts | 62° |
| 2026-05-04 10:57 | 45.42316 | -62.30244 | 36446 ft | 539 kts | 62° |
| 2026-05-04 10:58 | 45.45757 | -62.20748 | 36423 ft | 539 kts | 63° |
| 2026-05-04 10:58 | 45.49192 | -62.11234 | 36419 ft | 539 kts | 63° |
| 2026-05-04 10:59 | 45.52599 | -62.01765 | 36421 ft | 541 kts | 63° |
| 2026-05-04 10:59 | 45.56034 | -61.92184 | 36393 ft | 541 kts | 63° |
| 2026-05-04 11:00 | 45.59458 | -61.82601 | 36360 ft | 541 kts | 63° |
| 2026-05-04 11:02 | 45.73087 | -61.44109 | 36344 ft | 547 kts | 63° |
| 2026-05-04 11:05 | 45.98473 | -60.70904 | 36181 ft | 546 kts | 65° |
| 2026-05-04 11:06 | 46.01817 | -60.61107 | 36158 ft | 545 kts | 65° |
| 2026-05-04 11:06 | 46.05132 | -60.51365 | 36137 ft | 545 kts | 65° |
| 2026-05-04 11:10 | 46.28057 | -59.82944 | 36087 ft | 541 kts | 66° |
| 2026-05-04 11:12 | 46.40982 | -59.43582 | 36089 ft | 541 kts | 66° |
| 2026-05-04 11:12 | 46.44188 | -59.33720 | 36078 ft | 539 kts | 67° |
| 2026-05-04 11:13 | 46.47374 | -59.23883 | 36098 ft | 539 kts | 67° |
| 2026-05-04 11:13 | 46.50555 | -59.14025 | 36085 ft | 539 kts | 67° |